createdAt,value
2022-08-04T00:00:44.391Z,65.26
2022-08-04T00:01:44.430Z,65.46
2022-08-04T00:02:44.685Z,65.36
2022-08-04T00:03:44.343Z,65.66
2022-08-04T00:04:44.360Z,65.46
2022-08-04T00:05:44.321Z,65.66
2022-08-04T00:06:44.311Z,65.66
2022-08-04T00:07:45.301Z,65.96
2022-08-04T00:08:44.285Z,66.06
2022-08-04T00:09:44.282Z,65.96
2022-08-04T00:10:44.269Z,65.96
2022-08-04T00:11:44.241Z,66.09
2022-08-04T00:12:44.233Z,66.09
2022-08-04T00:13:52.673Z,66.09
2022-08-04T00:14:45.213Z,65.99
2022-08-04T00:15:44.186Z,66.09
2022-08-04T00:16:44.184Z,66.29
2022-08-04T00:17:44.162Z,66.29
2022-08-04T00:18:44.153Z,66.59
2022-08-04T00:19:44.141Z,66.59
2022-08-04T00:20:44.122Z,66.59
2022-08-04T00:21:44.103Z,66.99
2022-08-04T00:22:44.104Z,66.59
2022-08-04T00:24:11.606Z,67.19
2022-08-04T00:24:45.086Z,66.93
2022-08-04T00:25:44.055Z,67.13
2022-08-04T00:26:44.042Z,67.02
2022-08-04T00:27:44.031Z,67.02
2022-08-04T00:28:44.023Z,66.82
2022-08-04T00:29:44.014Z,66.93
2022-08-04T00:30:43.991Z,66.82
2022-08-04T00:31:56.748Z,67.02
2022-08-04T00:32:44.982Z,66.93
2022-08-04T00:33:43.944Z,67.02
2022-08-04T00:34:43.953Z,66.93
2022-08-04T00:35:43.921Z,67.22
2022-08-04T00:36:43.916Z,67.13
2022-08-04T00:37:43.893Z,67.02
2022-08-04T00:38:43.899Z,67.43
2022-08-04T00:39:43.873Z,67.22
2022-08-04T00:40:43.862Z,67.46
2022-08-04T00:41:56.280Z,67.86
2022-08-04T00:42:58.480Z,67.86
2022-08-04T00:43:44.816Z,67.76
2022-08-04T00:44:43.814Z,67.46
2022-08-04T00:46:15.077Z,67.55
2022-08-04T00:46:44.773Z,67.55
2022-08-04T00:47:43.755Z,67.66
2022-08-04T00:48:43.752Z,67.96
2022-08-04T00:49:43.746Z,67.96
2022-08-04T00:50:43.720Z,67.86
2022-08-04T00:51:43.705Z,67.96
2022-08-04T00:52:43.693Z,68.05
2022-08-04T00:53:49.915Z,68.16
2022-08-04T00:54:44.683Z,68.19
2022-08-04T00:55:43.653Z,67.89
2022-08-04T00:56:43.641Z,68.59
2022-08-04T00:57:43.623Z,68.69
2022-08-04T00:58:43.638Z,68.49
2022-08-04T00:59:43.614Z,68.39
2022-08-04T01:00:43.591Z,68.59
2022-08-04T01:01:43.686Z,68.59
2022-08-04T01:02:43.562Z,68.59
2022-08-04T01:03:43.552Z,68.49
2022-08-04T01:04:43.546Z,69.49
2022-08-04T01:05:43.522Z,68.79
2022-08-04T01:06:43.504Z,68.79
2022-08-04T01:07:44.491Z,68.79
2022-08-04T01:08:43.481Z,68.59
2022-08-04T01:09:43.475Z,68.79
2022-08-04T01:10:43.473Z,68.92
2022-08-04T01:11:56.686Z,69.02
2022-08-04T01:12:44.434Z,69.12
2022-08-04T01:13:43.415Z,69.12
2022-08-04T01:14:43.417Z,69.23
2022-08-04T01:16:00.084Z,69.42
2022-08-04T01:16:44.374Z,69.73
2022-08-04T01:17:43.355Z,69.42
2022-08-04T01:18:43.354Z,70.03
2022-08-04T01:19:43.344Z,69.93
2022-08-04T01:20:43.324Z,69.82
2022-08-04T01:21:43.304Z,70.23
2022-08-04T01:22:43.323Z,69.62
2022-08-04T01:23:43.284Z,69.42
2022-08-04T01:24:43.284Z,69.62
2022-08-04T01:25:43.255Z,69.62
2022-08-04T01:26:53.521Z,70.12
2022-08-04T01:27:44.223Z,69.86
2022-08-04T01:28:43.213Z,69.76
2022-08-04T01:29:47.051Z,69.66
2022-08-04T01:30:43.192Z,69.86
2022-08-04T01:31:43.173Z,69.66
2022-08-04T01:32:43.173Z,69.96
2022-08-04T01:34:03.386Z,69.86
2022-08-04T01:34:44.143Z,70.06
2022-08-04T01:35:47.469Z,70.16
2022-08-04T01:36:44.106Z,70.26
2022-08-04T01:37:44.092Z,69.96
2022-08-04T01:38:43.085Z,69.56
2022-08-04T01:39:43.078Z,69.76
2022-08-04T01:40:43.072Z,69.76
2022-08-04T01:41:43.043Z,69.86
2022-08-04T01:42:44.042Z,69.76
2022-08-04T01:43:43.005Z,70.06
2022-08-04T01:44:43.015Z,70.26
2022-08-04T01:45:42.992Z,69.66
2022-08-04T01:46:42.974Z,69.76
2022-08-04T01:47:42.977Z,70.26
2022-08-04T01:48:42.951Z,69.86
2022-08-04T01:49:42.944Z,69.99
2022-08-04T01:50:42.923Z,69.89
2022-08-04T01:51:42.958Z,69.99
2022-08-04T01:52:45.542Z,69.99
2022-08-04T01:53:43.875Z,69.59
2022-08-04T01:54:42.894Z,70.19
2022-08-04T01:55:54.482Z,69.89
2022-08-04T01:56:43.845Z,69.89
2022-08-04T01:57:42.870Z,69.89
2022-08-04T01:58:42.821Z,70.39
2022-08-04T01:59:42.814Z,70.29
2022-08-04T02:00:42.810Z,70.19
2022-08-04T02:01:42.885Z,70.50
2022-08-04T02:02:42.843Z,70.23
2022-08-04T02:04:18.861Z,70.03
2022-08-04T02:04:43.754Z,70.32
2022-08-04T02:06:03.971Z,70.03
2022-08-04T02:06:43.711Z,69.92
2022-08-04T02:07:42.693Z,70.43
2022-08-04T02:08:42.684Z,70.23
2022-08-04T02:09:54.691Z,70.32
2022-08-04T02:10:43.672Z,70.93
2022-08-04T02:11:42.641Z,70.43
2022-08-04T02:12:42.633Z,70.32
2022-08-04T02:13:42.614Z,70.83
2022-08-04T02:14:42.627Z,70.53
2022-08-04T02:15:42.605Z,70.32
2022-08-04T02:16:42.584Z,70.32
2022-08-04T02:17:42.561Z,70.32
2022-08-04T02:18:42.557Z,70.23
2022-08-04T02:19:42.534Z,70.26
2022-08-04T02:20:42.534Z,70.36
2022-08-04T02:21:43.050Z,70.56
2022-08-04T02:22:42.494Z,71.06
2022-08-04T02:23:42.484Z,70.56
2022-08-04T02:24:42.474Z,70.36
2022-08-04T02:25:42.471Z,70.56
2022-08-04T02:26:42.442Z,70.56
2022-08-04T02:27:59.917Z,70.56
2022-08-04T02:28:43.414Z,70.76
2022-08-04T02:29:42.428Z,70.96
2022-08-04T02:30:42.404Z,70.76
2022-08-04T02:31:42.374Z,70.56
2022-08-04T02:32:44.197Z,70.56
2022-08-04T02:33:42.349Z,70.46
2022-08-04T02:34:42.333Z,70.66
2022-08-04T02:35:42.332Z,70.59
2022-08-04T02:36:42.306Z,70.79
2022-08-04T02:37:42.294Z,71.00
2022-08-04T02:38:42.292Z,70.89
2022-08-04T02:39:48.179Z,70.59
2022-08-04T02:40:43.274Z,70.79
2022-08-04T02:41:42.235Z,70.79
2022-08-04T02:42:42.224Z,70.59
2022-08-04T02:43:50.848Z,71.00
2022-08-04T02:44:43.225Z,70.70
2022-08-04T02:45:42.205Z,70.59
2022-08-04T02:46:42.174Z,70.70
2022-08-04T02:48:25.184Z,70.79
2022-08-04T02:48:43.143Z,71.00
2022-08-04T02:49:42.144Z,71.00
2022-08-04T02:50:42.143Z,71.09
2022-08-04T02:51:42.113Z,71.33
2022-08-04T02:52:42.093Z,71.23
2022-08-04T02:53:42.144Z,71.63
2022-08-04T02:54:42.065Z,71.33
2022-08-04T02:55:42.071Z,71.43
2022-08-04T02:56:43.042Z,71.33
2022-08-04T02:57:42.063Z,71.33
2022-08-04T02:58:42.013Z,71.13
2022-08-04T02:59:42.013Z,71.43
2022-08-04T03:00:42.023Z,71.43
2022-08-04T03:01:56.821Z,71.53
2022-08-04T03:02:42.963Z,71.53
2022-08-04T03:03:41.953Z,71.53
2022-08-04T03:04:41.934Z,71.94
2022-08-04T03:05:50.072Z,71.83
2022-08-04T03:06:42.903Z,71.94
2022-08-04T03:07:41.901Z,71.73
2022-08-04T03:08:41.874Z,71.63
2022-08-04T03:09:41.874Z,72.03
2022-08-04T03:10:41.863Z,72.77
2022-08-04T03:11:41.842Z,72.17
2022-08-04T03:12:41.823Z,72.37
2022-08-04T03:13:41.814Z,72.17
2022-08-04T03:14:41.804Z,72.37
2022-08-04T03:15:41.804Z,72.37
2022-08-04T03:16:41.773Z,72.27
2022-08-04T03:17:53.220Z,72.47
2022-08-04T03:18:42.754Z,72.17
2022-08-04T03:19:41.745Z,72.57
2022-08-04T03:20:41.735Z,72.77
2022-08-04T03:21:41.715Z,72.17
2022-08-04T03:22:59.790Z,71.97
2022-08-04T03:23:42.683Z,72.37
2022-08-04T03:24:41.664Z,72.37
2022-08-04T03:25:57.162Z,72.17
2022-08-04T03:26:42.636Z,72.07
2022-08-04T03:27:41.634Z,71.87
2022-08-04T03:28:41.613Z,71.97
2022-08-04T03:29:41.604Z,71.97
2022-08-04T03:30:41.594Z,72.17
2022-08-04T03:31:41.574Z,72.81
2022-08-04T03:32:41.554Z,74.01
2022-08-04T03:33:41.564Z,74.01
2022-08-04T03:34:41.543Z,73.71
2022-08-04T03:35:41.534Z,74.01
2022-08-04T03:36:41.506Z,74.11
2022-08-04T03:37:41.494Z,73.91
2022-08-04T03:38:41.475Z,73.81
2022-08-04T03:39:41.530Z,73.21
2022-08-04T03:40:41.472Z,73.31
2022-08-04T03:41:55.295Z,72.91
2022-08-04T03:42:42.423Z,72.41
2022-08-04T03:43:57.342Z,72.41
2022-08-04T03:44:42.402Z,71.90
2022-08-04T03:45:41.426Z,72.30
2022-08-04T03:46:41.374Z,72.41
2022-08-04T03:47:42.425Z,72.10
2022-08-04T03:48:41.345Z,72.20
2022-08-04T03:49:41.334Z,72.20
2022-08-04T03:50:41.735Z,72.00
2022-08-04T03:51:41.313Z,71.90
2022-08-04T03:52:41.292Z,72.00
2022-08-04T03:53:41.305Z,72.10
2022-08-04T03:54:41.263Z,72.10
2022-08-04T03:55:41.293Z,72.03
2022-08-04T03:56:41.254Z,72.30
2022-08-04T03:57:41.224Z,72.14
2022-08-04T03:58:41.211Z,72.64
2022-08-04T03:59:41.204Z,72.54
2022-08-04T04:00:42.203Z,72.74
2022-08-04T04:02:01.484Z,72.44
2022-08-04T04:02:42.196Z,72.84
2022-08-04T04:03:41.144Z,72.44
2022-08-04T04:04:41.134Z,72.54
2022-08-04T04:05:59.850Z,72.64
2022-08-04T04:06:42.103Z,73.24
2022-08-04T04:07:41.095Z,72.94
2022-08-04T04:08:41.074Z,73.24
2022-08-04T04:09:58.083Z,72.74
2022-08-04T04:10:42.064Z,73.44
2022-08-04T04:11:56.752Z,74.15
2022-08-04T04:12:42.024Z,73.75
2022-08-04T04:13:41.014Z,73.75
2022-08-04T04:14:40.995Z,73.95
2022-08-04T04:15:41.002Z,74.15
2022-08-04T04:16:40.964Z,73.55
2022-08-04T04:17:40.965Z,73.44
2022-08-04T04:18:40.943Z,72.94
2022-08-04T04:19:40.944Z,73.14
2022-08-04T04:20:40.934Z,73.75
2022-08-04T04:21:40.904Z,73.75
2022-08-04T04:22:40.896Z,73.95
2022-08-04T04:23:40.883Z,73.85
2022-08-04T04:24:40.872Z,73.55
2022-08-04T04:25:40.873Z,72.94
2022-08-04T04:26:40.834Z,72.74
2022-08-04T04:27:40.823Z,72.64
2022-08-04T04:28:44.712Z,72.64
2022-08-04T04:29:41.801Z,72.14
2022-08-04T04:30:40.803Z,72.24
2022-08-04T04:31:40.775Z,72.24
2022-08-04T04:32:40.753Z,72.24
2022-08-04T04:33:40.754Z,72.44
2022-08-04T04:34:45.549Z,72.74
2022-08-04T04:35:41.733Z,72.37
2022-08-04T04:36:40.722Z,72.94
2022-08-04T04:37:48.593Z,72.97
2022-08-04T04:38:41.683Z,73.04
2022-08-04T04:39:40.734Z,72.74
2022-08-04T04:40:40.672Z,73.44
2022-08-04T04:41:40.644Z,73.14
2022-08-04T04:42:40.624Z,72.64
2022-08-04T04:43:51.507Z,72.64
2022-08-04T04:44:41.594Z,72.94
2022-08-04T04:45:40.606Z,72.24
2022-08-04T04:46:40.583Z,72.44
2022-08-04T04:48:09.046Z,72.44
2022-08-04T04:48:41.545Z,72.84
2022-08-04T04:49:40.536Z,72.74
2022-08-04T04:50:40.543Z,72.54
2022-08-04T04:51:40.525Z,72.54
2022-08-04T04:52:40.495Z,72.44
2022-08-04T04:53:40.483Z,72.24
2022-08-04T04:54:40.474Z,71.94
2022-08-04T04:55:42.220Z,72.03
2022-08-04T04:56:40.445Z,71.83
2022-08-04T04:57:53.286Z,72.14
2022-08-04T04:58:41.412Z,71.43
2022-08-04T04:59:40.403Z,71.33
2022-08-04T05:00:40.405Z,72.14
2022-08-04T05:01:40.373Z,72.24
2022-08-04T05:02:40.370Z,71.94
2022-08-04T05:03:40.345Z,71.63
2022-08-04T05:04:40.334Z,71.40
2022-08-04T05:05:40.342Z,71.80
2022-08-04T05:06:40.304Z,71.80
2022-08-04T05:07:40.304Z,72.30
2022-08-04T05:08:42.790Z,72.71
2022-08-04T05:09:41.274Z,73.27
2022-08-04T05:10:40.274Z,73.58
2022-08-04T05:11:40.243Z,73.88
2022-08-04T05:14:32.757Z,74.08
2022-08-04T05:14:35.504Z,74.15
2022-08-04T05:14:42.012Z,73.94
2022-08-04T05:15:40.203Z,74.24
2022-08-04T05:16:40.173Z,74.01
2022-08-04T05:17:40.173Z,73.71
2022-08-04T05:18:40.153Z,73.50
2022-08-04T05:19:40.144Z,73.07
2022-08-04T05:20:40.142Z,72.87
2022-08-04T05:21:40.117Z,72.77
2022-08-04T05:22:40.094Z,72.94
2022-08-04T05:23:40.092Z,72.53
2022-08-04T05:24:40.081Z,72.24
2022-08-04T05:25:40.073Z,71.90
2022-08-04T05:26:40.043Z,71.80
2022-08-04T05:27:40.391Z,71.90
2022-08-04T05:28:40.012Z,71.56
2022-08-04T05:29:41.089Z,71.06
2022-08-04T05:30:39.995Z,70.86
2022-08-04T05:31:39.974Z,70.96
2022-08-04T05:32:39.966Z,70.53
2022-08-04T05:33:39.954Z,70.62
2022-08-04T05:34:39.934Z,70.62
2022-08-04T05:36:16.253Z,70.12
2022-08-04T05:36:41.753Z,69.99
2022-08-04T05:37:39.895Z,69.79
2022-08-04T05:38:39.885Z,69.89
2022-08-04T05:39:39.948Z,69.56
2022-08-04T05:40:39.864Z,69.46
2022-08-04T05:41:46.343Z,69.46
2022-08-04T05:42:40.825Z,69.02
2022-08-04T05:43:39.822Z,68.82
2022-08-04T05:44:39.794Z,68.39
2022-08-04T05:45:39.802Z,68.19
2022-08-04T05:46:39.774Z,67.89
2022-08-04T05:47:39.765Z,68.09
2022-08-04T05:48:39.745Z,67.76
2022-08-04T05:49:39.745Z,66.86
2022-08-04T05:50:39.745Z,66.86
2022-08-04T05:51:39.715Z,66.76
2022-08-04T05:52:39.695Z,66.93
2022-08-04T05:53:39.685Z,66.43
2022-08-04T05:54:39.666Z,66.03
2022-08-04T05:55:48.770Z,66.03
2022-08-04T05:56:40.645Z,65.73
2022-08-04T05:57:39.626Z,65.80
2022-08-04T05:58:39.615Z,65.50
2022-08-04T05:59:39.605Z,64.90
2022-08-04T06:00:41.556Z,64.40
2022-08-04T06:01:55.859Z,64.17
2022-08-04T06:02:40.556Z,64.47
2022-08-04T06:03:39.560Z,64.57
2022-08-04T06:04:39.543Z,64.24
2022-08-04T06:05:39.546Z,64.74
2022-08-04T06:06:39.517Z,64.24
2022-08-04T06:08:07.718Z,63.61
2022-08-04T06:08:40.483Z,63.21
2022-08-04T06:09:39.476Z,63.48
2022-08-04T06:10:39.469Z,63.88
2022-08-04T06:12:03.049Z,64.04
2022-08-04T06:12:40.427Z,62.75
2022-08-04T06:13:48.650Z,62.92
2022-08-04T06:14:40.400Z,62.82
2022-08-04T06:15:39.417Z,62.29
2022-08-04T06:16:40.376Z,62.49
2022-08-04T06:19:56.569Z,62.37
2022-08-04T06:19:59.846Z,62.26
2022-08-04T06:20:02.829Z,61.94
2022-08-04T06:20:40.339Z,61.34
2022-08-04T06:21:40.316Z,61.41
2022-08-04T06:22:39.295Z,61.01
2022-08-04T06:23:52.960Z,60.88
2022-08-04T06:24:40.267Z,60.49
2022-08-04T06:25:39.265Z,60.16
2022-08-04T06:26:39.257Z,59.96
2022-08-04T06:27:39.227Z,59.53
2022-08-04T06:28:39.210Z,59.53
2022-08-04T06:29:39.218Z,59.41
2022-08-04T06:30:39.182Z,58.81
2022-08-04T06:32:27.054Z,58.98
2022-08-04T06:32:41.989Z,58.59
2022-08-04T06:33:54.464Z,58.06
2022-08-04T06:34:40.151Z,58.26
2022-08-04T06:35:39.129Z,57.54
2022-08-04T06:36:39.178Z,55.46
2022-08-04T06:37:43.433Z,54.57
2022-08-04T06:38:39.090Z,54.77
2022-08-04T06:39:39.154Z,55.53
2022-08-04T06:40:39.067Z,55.53
2022-08-04T06:41:55.318Z,55.01
2022-08-04T06:42:40.059Z,55.01
2022-08-04T06:43:43.125Z,53.50
2022-08-04T06:44:40.011Z,53.60
2022-08-04T06:45:38.993Z,53.11
2022-08-04T06:46:38.992Z,51.99
2022-08-04T06:47:38.979Z,52.98
2022-08-04T06:48:38.968Z,54.14
2022-08-04T06:49:44.193Z,52.56
2022-08-04T06:51:26.163Z,52.53
2022-08-04T06:51:48.944Z,51.64
2022-08-04T06:52:39.966Z,50.85
2022-08-04T06:53:38.890Z,51.03
2022-08-04T06:54:38.883Z,52.21
2022-08-04T06:55:38.861Z,50.61
2022-08-04T06:56:38.861Z,50.51
2022-08-04T06:57:38.831Z,50.38
2022-08-04T06:58:38.821Z,47.63
2022-08-04T06:59:38.801Z,48.81
2022-08-04T07:00:38.801Z,48.91
2022-08-04T07:01:38.843Z,48.69
2022-08-04T07:02:38.782Z,50.07
2022-08-04T07:03:38.751Z,50.34
2022-08-04T07:04:38.754Z,50.44
2022-08-04T07:05:38.722Z,50.42
2022-08-04T07:06:38.750Z,51.00
2022-08-04T07:07:56.827Z,50.78
2022-08-04T07:08:39.682Z,51.28
2022-08-04T07:09:38.672Z,50.07
2022-08-04T07:10:38.664Z,50.56
2022-08-04T07:11:44.139Z,50.04
2022-08-04T07:12:39.632Z,49.35
2022-08-04T07:13:43.262Z,49.13
2022-08-04T07:14:39.604Z,48.33
2022-08-04T07:15:38.621Z,48.62
2022-08-04T07:16:38.596Z,48.40
2022-08-04T07:17:38.574Z,45.85
2022-08-04T07:18:38.563Z,46.51
2022-08-04T07:19:38.534Z,46.61
2022-08-04T07:20:38.714Z,47.69
2022-08-04T07:21:38.540Z,47.57
2022-08-04T07:22:38.504Z,46.20
2022-08-04T07:23:38.486Z,45.39
2022-08-04T07:24:38.483Z,43.13
2022-08-04T07:26:11.025Z,42.55
2022-08-04T07:26:39.544Z,42.15
2022-08-04T07:27:48.090Z,41.66
2022-08-04T07:28:39.425Z,44.02
2022-08-04T07:29:38.405Z,44.78
2022-08-04T07:30:38.398Z,44.95
2022-08-04T07:31:38.404Z,43.17
2022-08-04T07:32:38.403Z,40.92
2022-08-04T07:33:38.355Z,41.11
2022-08-04T07:34:38.349Z,42.95
2022-08-04T07:36:05.986Z,40.60
2022-08-04T07:36:50.485Z,42.07
2022-08-04T07:37:40.105Z,42.35
2022-08-04T07:38:51.142Z,40.78
2022-08-04T07:39:48.240Z,40.00
2022-08-04T07:40:39.279Z,40.48
2022-08-04T07:41:38.402Z,39.02
2022-08-04T07:42:38.246Z,38.34
2022-08-04T07:43:38.226Z,39.22
2022-08-04T07:44:38.218Z,41.05
2022-08-04T07:45:38.197Z,38.81
2022-08-04T07:46:38.212Z,39.10
2022-08-04T07:47:38.177Z,40.06
2022-08-04T07:48:38.166Z,38.20
2022-08-04T07:49:56.266Z,38.96
2022-08-04T07:50:39.168Z,38.87
2022-08-04T07:51:38.159Z,39.06
2022-08-04T07:52:39.937Z,38.94
2022-08-04T07:53:55.372Z,39.90
2022-08-04T07:54:39.103Z,37.93
2022-08-04T07:55:38.072Z,38.89
2022-08-04T07:56:38.082Z,38.20
2022-08-04T07:57:41.270Z,38.77
2022-08-04T07:58:38.040Z,38.46
2022-08-04T07:59:38.038Z,36.49
2022-08-04T08:00:38.011Z,36.79
2022-08-04T08:01:38.009Z,35.61
2022-08-04T08:02:38.169Z,35.71
2022-08-04T08:03:38.053Z,36.96
2022-08-04T08:04:37.968Z,35.50
2022-08-04T08:06:17.703Z,35.39
2022-08-04T08:06:43.164Z,35.97
2022-08-04T08:07:38.031Z,34.70
2022-08-04T08:08:38.922Z,33.83
2022-08-04T08:09:37.901Z,34.52
2022-08-04T08:10:37.891Z,34.88
2022-08-04T08:12:36.517Z,35.16
2022-08-04T08:12:51.411Z,34.67
2022-08-04T08:13:38.853Z,33.49
2022-08-04T08:14:37.845Z,34.27
2022-08-04T08:15:37.815Z,33.69
2022-08-04T08:16:37.832Z,34.35
2022-08-04T08:17:59.429Z,33.47
2022-08-04T08:18:38.794Z,33.17
2022-08-04T08:19:37.771Z,33.44
2022-08-04T08:20:38.661Z,33.42
2022-08-04T08:21:59.696Z,32.56
2022-08-04T08:22:38.863Z,31.09
2022-08-04T08:23:37.717Z,30.21
2022-08-04T08:24:37.713Z,31.67
2022-08-04T08:25:37.695Z,30.99
2022-08-04T08:26:37.695Z,29.43
2022-08-04T08:27:37.664Z,30.68
2022-08-04T08:28:37.663Z,28.36
2022-08-04T08:29:37.644Z,29.61
2022-08-04T08:30:37.635Z,30.98
2022-08-04T08:31:58.281Z,30.96
2022-08-04T08:32:38.606Z,31.05
2022-08-04T08:33:37.595Z,29.88
2022-08-04T08:34:37.585Z,30.15
2022-08-04T08:35:39.661Z,30.05
2022-08-04T08:36:38.582Z,28.98
2022-08-04T08:37:40.333Z,27.53
2022-08-04T08:38:37.526Z,27.34
2022-08-04T08:39:37.593Z,28.30
2022-08-04T08:40:40.564Z,28.40
2022-08-04T08:41:37.496Z,29.25
2022-08-04T08:42:37.570Z,29.64
2022-08-04T08:44:04.351Z,30.11
2022-08-04T08:44:38.458Z,28.16
2022-08-04T08:45:37.445Z,27.78
2022-08-04T08:46:48.875Z,27.59
2022-08-04T08:47:58.505Z,28.94
2022-08-04T08:48:38.398Z,28.53
2022-08-04T08:50:03.031Z,26.51
2022-08-04T08:50:38.374Z,26.70
2022-08-04T08:51:37.369Z,27.46
2022-08-04T08:52:57.311Z,28.14
2022-08-04T08:53:38.328Z,27.85
2022-08-04T08:54:37.330Z,26.10
2022-08-04T08:55:37.319Z,25.13
2022-08-04T08:56:37.329Z,25.33
2022-08-04T08:57:40.341Z,26.00
2022-08-04T08:58:38.280Z,25.62
2022-08-04T08:59:37.270Z,25.33
2022-08-04T09:00:37.261Z,25.51
2022-08-04T09:01:37.334Z,26.76
2022-08-04T09:02:37.238Z,26.36
2022-08-04T09:03:37.239Z,26.65
2022-08-04T09:04:37.203Z,26.06
2022-08-04T09:05:37.194Z,24.52
2022-08-04T09:06:37.220Z,24.43
2022-08-04T09:07:37.239Z,24.04
2022-08-04T09:08:37.161Z,23.18
2022-08-04T09:09:37.191Z,23.57
2022-08-04T09:10:37.140Z,23.19
2022-08-04T09:11:37.133Z,23.28
2022-08-04T09:12:37.111Z,22.61
2022-08-04T09:13:37.097Z,23.30
2022-08-04T09:14:37.082Z,23.58
2022-08-04T09:15:37.063Z,23.96
2022-08-04T09:16:37.171Z,23.19
2022-08-04T09:17:37.033Z,23.38
2022-08-04T09:18:37.104Z,23.67
2022-08-04T09:19:39.065Z,23.77
2022-08-04T09:20:37.015Z,23.77
2022-08-04T09:21:37.007Z,24.52
2022-08-04T09:22:36.991Z,22.88
2022-08-04T09:23:36.967Z,23.74
2022-08-04T09:24:37.278Z,24.02
2022-08-04T09:25:37.042Z,23.15
2022-08-04T09:26:36.952Z,23.62
2022-08-04T09:27:36.994Z,22.38
2022-08-04T09:28:53.504Z,22.85
2022-08-04T09:29:37.905Z,23.14
2022-08-04T09:30:36.885Z,22.85
2022-08-04T09:31:52.974Z,22.18
2022-08-04T09:32:37.866Z,21.89
2022-08-04T09:33:44.454Z,23.33
2022-08-04T09:34:37.839Z,23.52
2022-08-04T09:35:36.860Z,23.61
2022-08-04T09:36:36.835Z,21.78
2022-08-04T09:37:45.570Z,21.88
2022-08-04T09:38:37.796Z,21.49
2022-08-04T09:39:36.852Z,22.25
2022-08-04T09:40:53.232Z,23.02
2022-08-04T09:41:48.525Z,23.01
2022-08-04T09:42:37.745Z,22.44
2022-08-04T09:44:42.342Z,22.05
2022-08-04T09:44:50.725Z,21.28
2022-08-04T09:45:42.368Z,20.32
2022-08-04T09:46:37.716Z,21.49
2022-08-04T09:47:39.570Z,21.20
2022-08-04T09:48:36.674Z,22.06
2022-08-04T09:49:36.679Z,20.04
2022-08-04T09:50:36.656Z,21.01
2022-08-04T09:51:59.016Z,20.62
2022-08-04T09:52:37.650Z,21.11
2022-08-04T09:53:36.610Z,22.34
2022-08-04T09:54:36.600Z,22.24
2022-08-04T09:55:36.591Z,22.24
2022-08-04T09:56:37.616Z,22.61
2022-08-04T09:57:36.561Z,22.91
2022-08-04T09:58:36.551Z,22.89
2022-08-04T09:59:36.531Z,22.13
2022-08-04T10:00:40.692Z,21.55
2022-08-04T10:01:36.592Z,21.74
2022-08-04T10:02:36.612Z,22.32
2022-08-04T10:03:36.660Z,22.41
2022-08-04T10:04:36.487Z,21.66
2022-08-04T10:05:36.452Z,21.08
2022-08-04T10:06:36.490Z,22.82
2022-08-04T10:07:36.443Z,21.77
2022-08-04T10:08:36.435Z,22.24
2022-08-04T10:09:36.427Z,21.56
2022-08-04T10:10:36.442Z,22.14
2022-08-04T10:11:36.393Z,21.85
2022-08-04T10:12:37.403Z,22.05
2022-08-04T10:13:36.381Z,22.24
2022-08-04T10:14:36.354Z,21.00
2022-08-04T10:15:36.354Z,20.81
2022-08-04T10:16:36.344Z,22.17
2022-08-04T10:17:36.334Z,22.08
2022-08-04T10:18:36.312Z,22.36
2022-08-04T10:19:36.307Z,22.94
2022-08-04T10:20:45.764Z,22.56
2022-08-04T10:21:37.266Z,22.18
2022-08-04T10:22:49.986Z,22.48
2022-08-04T10:23:55.097Z,23.07
2022-08-04T10:24:37.235Z,23.16
2022-08-04T10:26:03.262Z,23.07
2022-08-04T10:26:37.220Z,22.88
2022-08-04T10:27:36.256Z,22.69
2022-08-04T10:28:36.379Z,23.16
2022-08-04T10:29:36.222Z,23.15
2022-08-04T10:30:36.177Z,22.58
2022-08-04T10:31:36.203Z,23.91
2022-08-04T10:32:39.973Z,21.41
2022-08-04T10:33:37.127Z,21.51
2022-08-04T10:34:36.127Z,21.41
2022-08-04T10:35:36.097Z,20.54
2022-08-04T10:36:36.095Z,21.50
2022-08-04T10:37:59.026Z,21.59
2022-08-04T10:38:37.068Z,21.50
2022-08-04T10:39:43.354Z,21.78
2022-08-04T10:40:37.072Z,22.66
2022-08-04T10:41:36.059Z,22.48
2022-08-04T10:42:36.031Z,22.30
2022-08-04T10:43:36.099Z,23.66
2022-08-04T10:44:41.921Z,24.15
2022-08-04T10:45:36.990Z,23.00
2022-08-04T10:46:35.998Z,22.73
2022-08-04T10:47:35.965Z,23.02
2022-08-04T10:48:36.003Z,22.43
2022-08-04T10:49:35.940Z,23.77
2022-08-04T10:50:35.920Z,21.83
2022-08-04T10:51:57.699Z,21.34
2022-08-04T10:52:36.912Z,22.78
2022-08-04T10:53:35.898Z,21.73
2022-08-04T10:54:35.912Z,22.11
2022-08-04T10:56:07.110Z,21.24
2022-08-04T10:56:36.855Z,21.62
2022-08-04T10:57:35.841Z,21.53
2022-08-04T10:58:48.549Z,21.82
2022-08-04T10:59:36.813Z,22.38
2022-08-04T11:00:35.810Z,21.81
2022-08-04T11:02:02.062Z,22.29
2022-08-04T11:02:36.837Z,22.11
2022-08-04T11:03:35.763Z,22.13
2022-08-04T11:04:35.771Z,22.52
2022-08-04T11:05:44.169Z,22.44
2022-08-04T11:06:36.727Z,22.34
2022-08-04T11:07:35.727Z,23.13
2022-08-04T11:08:35.712Z,23.50
2022-08-04T11:09:35.695Z,22.63
2022-08-04T11:10:35.681Z,23.31
2022-08-04T11:12:01.622Z,23.21
2022-08-04T11:12:36.662Z,23.79
2022-08-04T11:13:35.635Z,24.66
2022-08-04T11:14:35.638Z,23.88
2022-08-04T11:15:35.616Z,23.69
2022-08-04T11:16:35.597Z,24.09
2022-08-04T11:17:35.607Z,24.76
2022-08-04T11:18:35.572Z,24.57
2022-08-04T11:19:44.891Z,24.48
2022-08-04T11:20:36.864Z,24.38
2022-08-04T11:21:35.623Z,23.98
2022-08-04T11:22:35.546Z,23.02
2022-08-04T11:23:35.526Z,23.80
2022-08-04T11:24:35.507Z,24.48
2022-08-04T11:25:35.496Z,24.38
2022-08-04T11:26:35.477Z,23.90
2022-08-04T11:27:35.477Z,23.03
2022-08-04T11:28:35.451Z,22.56
2022-08-04T11:29:35.438Z,23.82
2022-08-04T11:30:35.420Z,24.21
2022-08-04T11:31:35.448Z,24.13
2022-08-04T11:32:35.409Z,23.83
2022-08-04T11:33:35.393Z,24.51
2022-08-04T11:34:35.378Z,25.09
2022-08-04T11:35:35.380Z,24.99
2022-08-04T11:36:35.361Z,25.48
2022-08-04T11:37:35.388Z,25.28
2022-08-04T11:38:35.331Z,25.48
2022-08-04T11:39:35.443Z,24.80
2022-08-04T11:40:35.319Z,24.98
2022-08-04T11:41:35.318Z,25.56
2022-08-04T11:42:35.291Z,24.69
2022-08-04T11:44:02.837Z,24.79
2022-08-04T11:44:36.261Z,24.79
2022-08-04T11:45:35.251Z,25.37
2022-08-04T11:46:35.241Z,25.75
2022-08-04T11:47:35.303Z,25.16
2022-08-04T11:48:35.292Z,25.35
2022-08-04T11:49:56.734Z,25.35
2022-08-04T11:50:36.190Z,24.77
2022-08-04T11:51:35.217Z,24.10
2022-08-04T11:52:35.211Z,24.28
2022-08-04T11:53:36.807Z,25.15
2022-08-04T11:54:35.182Z,24.96
2022-08-04T11:56:07.656Z,24.38
2022-08-04T11:56:37.849Z,24.67
2022-08-04T11:57:35.727Z,23.99
2022-08-04T11:58:35.094Z,23.71
2022-08-04T11:59:35.437Z,24.09
2022-08-04T12:00:35.064Z,24.01
2022-08-04T12:01:35.077Z,24.20
2022-08-04T12:02:35.177Z,24.87
2022-08-04T12:03:37.566Z,24.77
2022-08-04T12:04:35.030Z,25.35
2022-08-04T12:05:36.737Z,25.75
2022-08-04T12:06:34.996Z,25.37
2022-08-04T12:07:39.009Z,25.27
2022-08-04T12:08:35.976Z,25.48
2022-08-04T12:09:34.956Z,25.48
2022-08-04T12:10:41.080Z,23.45
2022-08-04T12:11:35.939Z,24.62
2022-08-04T12:12:34.948Z,24.81
2022-08-04T12:13:34.913Z,25.39
2022-08-04T12:14:34.897Z,25.78
2022-08-04T12:15:34.899Z,25.97
2022-08-04T12:16:34.871Z,26.34
2022-08-04T12:17:52.327Z,25.86
2022-08-04T12:18:35.850Z,25.76
2022-08-04T12:19:58.630Z,24.90
2022-08-04T12:20:40.569Z,24.90
2022-08-04T12:21:35.842Z,25.67
2022-08-04T12:22:34.801Z,25.96
2022-08-04T12:23:34.790Z,25.57
2022-08-04T12:24:34.781Z,25.38
2022-08-04T12:25:34.782Z,26.06
2022-08-04T12:26:34.741Z,23.93
2022-08-04T12:27:34.762Z,25.76
2022-08-04T12:28:59.570Z,25.86
2022-08-04T12:29:35.747Z,26.15
2022-08-04T12:31:00.426Z,26.45
2022-08-04T12:31:35.700Z,24.23
2022-08-04T12:32:34.704Z,25.87
2022-08-04T12:34:03.353Z,26.35
2022-08-04T12:34:35.653Z,25.59
2022-08-04T12:35:34.640Z,26.35
2022-08-04T12:36:34.641Z,26.65
2022-08-04T12:37:34.633Z,25.68
2022-08-04T12:38:34.622Z,26.75
2022-08-04T12:39:34.652Z,25.39
2022-08-04T12:40:34.617Z,24.72
2022-08-04T12:41:36.019Z,25.39
2022-08-04T12:42:34.557Z,26.25
2022-08-04T12:43:34.534Z,25.48
2022-08-04T12:44:37.301Z,24.41
2022-08-04T12:45:34.517Z,25.86
2022-08-04T12:46:34.498Z,24.61
2022-08-04T12:47:34.524Z,26.06
2022-08-04T12:48:34.483Z,25.67
2022-08-04T12:49:34.501Z,25.18
2022-08-04T12:50:34.473Z,25.75
2022-08-04T12:52:07.041Z,24.98
2022-08-04T12:53:35.424Z,26.23